createdAt,value
2023-05-23T00:03:26.546Z,963.56
2023-05-23T00:18:28.253Z,963.61
2023-05-23T00:33:29.990Z,963.42
2023-05-23T00:48:31.586Z,963.47
2023-05-23T01:03:33.312Z,963.3
2023-05-23T01:18:34.932Z,963.29
2023-05-23T01:33:36.523Z,963.3
2023-05-23T01:48:38.120Z,963.31
2023-05-23T02:03:39.785Z,963.4
2023-05-23T02:18:41.373Z,963.37
2023-05-23T02:33:42.937Z,963.44
2023-05-23T02:48:44.487Z,963.45
2023-05-23T03:03:46.180Z,963.53
2023-05-23T03:18:47.831Z,963.6
2023-05-23T13:12:52.325Z,964.73
2023-05-23T13:27:54.067Z,964.79
2023-05-23T13:42:55.803Z,964.84
2023-05-23T13:57:57.650Z,964.84
2023-05-23T14:12:59.430Z,964.88
2023-05-23T14:28:01.161Z,964.9
2023-05-23T14:43:03.012Z,964.91
2023-05-23T14:58:04.847Z,964.85
2023-05-23T15:13:06.664Z,964.8
2023-05-23T15:28:08.384Z,964.81
2023-05-23T15:43:10.102Z,964.74
2023-05-23T15:58:11.880Z,964.69
2023-05-23T16:13:13.653Z,964.61
2023-05-23T16:28:15.396Z,964.62
2023-05-23T16:43:17.151Z,964.63
2023-05-23T16:58:21.223Z,964.67
2023-05-23T17:13:23.254Z,964.76
2023-05-23T17:28:25.031Z,964.82
2023-05-23T17:43:26.815Z,964.82
2023-05-23T17:58:28.566Z,964.81
2023-05-23T18:13:30.399Z,964.73
2023-05-23T18:28:32.175Z,964.7
2023-05-23T18:43:33.948Z,964.58
2023-05-23T18:58:35.692Z,964.59
2023-05-23T19:13:37.432Z,964.52
2023-05-23T19:28:39.216Z,964.47
2023-05-23T19:43:40.969Z,964.52
2023-05-23T19:58:42.868Z,964.45
2023-05-23T20:13:44.645Z,964.11
2023-05-23T20:28:46.477Z,963.88
2023-05-23T20:43:48.339Z,963.67
2023-05-23T20:58:50.199Z,963.44
2023-05-23T21:13:52.037Z,963.26
2023-05-23T21:28:53.824Z,963.04
2023-05-23T21:43:55.615Z,962.88
2023-05-23T21:58:57.453Z,962.7
2023-05-23T22:13:59.273Z,962.64
2023-05-23T22:29:01.106Z,962.55
2023-05-23T22:44:02.943Z,962.58
2023-05-23T22:59:04.733Z,962.63
2023-05-23T23:14:06.567Z,962.75
2023-05-23T23:29:08.402Z,962.83
2023-05-23T23:44:10.277Z,962.97
2023-05-23T23:59:12.075Z,962.9
